Terminal Aerodrome Forecast
Issued by NWS Flagstaff, AZ

Home | Current Version | Previous Version | Text Only | Print | Product List | Glossary On
Versions: 1 2 3 4 5 6 7 8 9 10 11 12 13 14 15 16 17 18 19
000
FTUS45 KFGZ 272101 AAA
TAFINW
TAF AMD
KINW 272101Z 2721/2818 VRB06KT P6SM BKN100
     FM272200 27011G20KT P6SM BKN100
     FM280300 23008KT P6SM SCT110=

USA.gov is the U.S. government's official web portal to all federal, state and local government web resources and services.